»·PEaware :: DAL4243 KLAX-KSFO

DAL4243 :: KLAX-KSFO

FLIGHT INFORMATION

Flight Status: Arrived
Operator:
Delta Air Lines
More flights by this operator :: More flights under this callsign
Pilot: Sean Bradley (13609)
Aircraft: BOEING 757-200
(B752)
More flights by this aircraft type
Origin: KLAX Los Angeles Intl
United States
Destination: KSFO San Francisco Intl
United States
More flights between these airports :: More routes between these airports
Route: +VTU7 RZS STOKD SERFR WWAVS1
File this flight plan on PilotEdge
Remarks:
Altitude:
(Current/Filed)
36,000ft
Speed:
(Current/Filed)
430kts
Departed: 03-Jan-17 07:19 PM
Arrived: 03-Jan-17 08:35 PM
Distance/Time
Traveled:
293nm/1:16
Distance/Time
To Go:
Arrived

Flight Plot

Page will automatically refresh every two minutes.

Flight plan parsing failed; only flown route is shown


Map Options




Map Legend


Flown Route
Filed Route
Departure Airport
Arrival Airport
Navaid (VOR, NDB)
Fix

Horizontal Profiles

Position Reports

Time Latitude Longitude Heading Altitude Ground
Speed
03-Jan-17 18:28 33.940223 -118.404963 83 126ft 0kts
03-Jan-17 18:29 33.940223 -118.404963 83 126ft 0kts
03-Jan-17 18:30 33.940223 -118.404963 83 126ft 0kts
03-Jan-17 18:31 33.940223 -118.404963 83 126ft 0kts
03-Jan-17 18:32 33.940223 -118.404963 83 126ft 0kts
03-Jan-17 18:33 33.940223 -118.404963 83 126ft 0kts
03-Jan-17 18:34 33.940223 -118.404963 83 126ft 0kts
03-Jan-17 18:35 33.940223 -118.404963 83 126ft 0kts
03-Jan-17 18:36 33.940223 -118.404963 83 126ft 0kts
03-Jan-17 18:37 33.940223 -118.404963 83 126ft 0kts
03-Jan-17 18:38 33.940223 -118.404963 83 126ft 0kts
03-Jan-17 18:39 33.940223 -118.404963 83 126ft 0kts
03-Jan-17 18:40 33.940223 -118.404963 83 126ft 0kts
03-Jan-17 18:41 33.940223 -118.404963 83 126ft 0kts
03-Jan-17 18:42 33.940223 -118.404963 83 126ft 0kts
03-Jan-17 18:43 33.940223 -118.404963 83 126ft 0kts
03-Jan-17 18:44 33.940223 -118.404963 83 126ft 0kts
03-Jan-17 18:45 33.940223 -118.404963 83 126ft 0kts
03-Jan-17 18:46 33.940223 -118.404963 83 126ft 0kts
03-Jan-17 18:47 33.940223 -118.404963 83 126ft 0kts
03-Jan-17 18:48 33.940223 -118.404963 83 126ft 0kts
03-Jan-17 18:49 33.940223 -118.404963 83 126ft 0kts
03-Jan-17 18:50 33.940223 -118.404963 83 126ft 0kts
03-Jan-17 18:51 33.940223 -118.404963 83 126ft 0kts
03-Jan-17 18:52 33.940223 -118.404963 83 126ft 0kts
03-Jan-17 18:53 33.940223 -118.404963 83 126ft 0kts
03-Jan-17 18:54 33.940223 -118.404963 83 126ft 0kts
03-Jan-17 18:55 33.940223 -118.404963 83 126ft 0kts
03-Jan-17 18:56 33.940223 -118.404963 83 126ft 0kts
03-Jan-17 18:57 33.940223 -118.404963 83 126ft 0kts
03-Jan-17 18:58 33.940223 -118.404963 83 126ft 0kts
03-Jan-17 18:59 33.940223 -118.404963 83 126ft 0kts
03-Jan-17 19:00 33.940223 -118.404963 83 126ft 0kts
03-Jan-17 19:01 33.940223 -118.404963 83 126ft 0kts
03-Jan-17 19:02 33.940224 -118.404963 83 126ft 0kts
03-Jan-17 19:03 33.940203 -118.405306 107 126ft 1kts
03-Jan-17 19:04 33.940469 -118.405525 173 126ft 0kts
03-Jan-17 19:05 33.940469 -118.405525 173 126ft 0kts
03-Jan-17 19:06 33.940469 -118.405525 173 126ft 0kts
03-Jan-17 19:07 33.940469 -118.405525 173 126ft 0kts
03-Jan-17 19:08 33.940469 -118.405525 173 126ft 0kts
03-Jan-17 19:09 33.940469 -118.405525 173 126ft 0kts
03-Jan-17 19:10 33.939120 -118.405327 173 126ft 9kts
03-Jan-17 19:11 33.938460 -118.403090 83 123ft 14kts
03-Jan-17 19:12 33.938892 -118.398875 83 117ft 19kts
03-Jan-17 19:13 33.939469 -118.393200 83 110ft 22kts
03-Jan-17 19:14 33.940126 -118.386775 83 107ft 19kts
03-Jan-17 19:15 33.940701 -118.381189 82 103ft 12kts
03-Jan-17 19:16 33.940717 -118.380859 95 103ft 0kts
03-Jan-17 19:17 33.940717 -118.380859 95 103ft 0kts
03-Jan-17 19:18 33.939888 -118.380380 230 103ft 9kts
03-Jan-17 19:19 33.938722 -118.391245 263 110ft 143kts
03-Jan-17 19:20 33.933353 -118.442865 264 2245ft 196kts
03-Jan-17 19:21 33.925940 -118.514209 263 5297ft 235kts
03-Jan-17 19:22 33.918152 -118.589147 262 8595ft 254kts
03-Jan-17 19:23 33.911146 -118.656394 261 10904ft 282kts
03-Jan-17 19:24 33.916528 -118.733340 296 12463ft 341kts
03-Jan-17 19:25 33.966697 -118.793813 308 15291ft 349kts
03-Jan-17 19:26 34.016824 -118.869452 300 17920ft 354kts
03-Jan-17 19:27 34.061141 -118.946644 297 20269ft 358kts
03-Jan-17 19:28 34.104645 -119.027931 296 22430ft 362kts
03-Jan-17 19:29 34.152476 -119.115228 296 24383ft 370kts
03-Jan-17 19:30 34.197074 -119.195618 295 25806ft 379kts
03-Jan-17 19:31 34.243876 -119.280342 293 27141ft 387kts
03-Jan-17 19:32 34.290259 -119.365821 292 28593ft 390kts
03-Jan-17 19:33 34.337197 -119.451899 291 29732ft 397kts
03-Jan-17 19:34 34.385284 -119.539429 292 30792ft 403kts
03-Jan-17 19:35 34.434151 -119.628023 291 32007ft 402kts
03-Jan-17 19:36 34.486512 -119.724236 290 33654ft 392kts
03-Jan-17 19:37 34.556880 -119.818169 305 35153ft 412kts
03-Jan-17 19:38 34.637707 -119.903545 304 36177ft 405kts
03-Jan-17 19:39 34.717489 -119.989557 304 36175ft 404kts
03-Jan-17 19:40 34.784882 -120.061654 304 36173ft 404kts
03-Jan-17 19:41 34.861552 -120.143650 304 36168ft 404kts
03-Jan-17 19:42 34.934301 -120.221623 305 36148ft 405kts
03-Jan-17 19:43 35.014196 -120.306635 305 36156ft 406kts
03-Jan-17 19:44 35.093413 -120.392611 305 36154ft 406kts
03-Jan-17 19:45 35.169434 -120.474211 306 36125ft 409kts
03-Jan-17 19:46 35.250039 -120.559094 305 36120ft 407kts
03-Jan-17 19:47 35.315709 -120.631183 305 36121ft 407kts
03-Jan-17 19:48 35.398430 -120.723010 304 36140ft 406kts
03-Jan-17 19:49 35.460985 -120.790905 306 36137ft 411kts
03-Jan-17 19:50 35.539575 -120.866547 309 36105ft 417kts
03-Jan-17 19:51 35.593844 -120.922500 300 36116ft 401kts
03-Jan-17 19:52 35.662919 -121.007290 304 36104ft 406kts
03-Jan-17 19:53 35.725179 -121.077552 305 36112ft 410kts
03-Jan-17 19:54 35.783672 -121.141683 306 36109ft 411kts
03-Jan-17 19:55 35.891493 -121.233653 320 36110ft 438kts
03-Jan-17 19:56 35.976467 -121.291979 317 36105ft 433kts
03-Jan-17 19:57 36.072038 -121.364584 316 36081ft 432kts
03-Jan-17 19:58 36.155988 -121.430054 316 36042ft 433kts
03-Jan-17 19:59 36.251858 -121.505903 316 36037ft 431kts
03-Jan-17 20:00 36.349792 -121.579626 318 36048ft 435kts
03-Jan-17 20:01 36.461309 -121.668231 316 36061ft 426kts
03-Jan-17 20:02 36.543129 -121.733477 319 35939ft 432kts
03-Jan-17 20:03 36.621835 -121.795978 317 33815ft 431kts
03-Jan-17 20:04 36.697153 -121.856831 318 31293ft 434kts
03-Jan-17 20:05 36.769835 -121.920420 310 28600ft 396kts
03-Jan-17 20:06 36.830911 -121.985738 311 25468ft 387kts
03-Jan-17 20:07 36.890855 -122.049073 312 22363ft 379kts
03-Jan-17 20:08 36.953595 -122.114880 314 19054ft 370kts
03-Jan-17 20:09 37.012315 -122.175868 313 15890ft 361kts
03-Jan-17 20:10 37.072648 -122.239474 312 12540ft 352kts
03-Jan-17 20:11 37.120253 -122.287375 326 11028ft 321kts
03-Jan-17 20:12 37.179508 -122.310410 336 10365ft 288kts
03-Jan-17 20:13 37.236316 -122.330898 335 9980ft 281kts
03-Jan-17 20:14 37.292505 -122.350462 335 9754ft 280kts
03-Jan-17 20:15 37.348025 -122.369611 335 9362ft 280kts
03-Jan-17 20:16 37.404106 -122.388933 335 8967ft 279kts
03-Jan-17 20:17 37.456258 -122.406924 335 8601ft 278kts
03-Jan-17 20:18 37.517966 -122.428133 335 8302ft 258kts
03-Jan-17 20:19 37.570864 -122.446410 334 8153ft 248kts
03-Jan-17 20:20 37.632245 -122.467707 337 6018ft 269kts
03-Jan-17 20:21 37.689757 -122.469087 10 5623ft 263kts
03-Jan-17 20:22 37.744876 -122.446285 23 5528ft 264kts
03-Jan-17 20:23 37.794109 -122.417577 23 5157ft 261kts
03-Jan-17 20:24 37.842721 -122.390383 26 4563ft 250kts
03-Jan-17 20:25 37.860385 -122.340080 113 4045ft 210kts
03-Jan-17 20:26 37.850375 -122.289493 113 4020ft 209kts
03-Jan-17 20:27 37.828349 -122.258443 172 4042ft 180kts
03-Jan-17 20:28 37.796317 -122.254087 202 3736ft 174kts
03-Jan-17 20:29 37.765671 -122.275034 204 3054ft 169kts
03-Jan-17 20:30 37.729594 -122.299233 202 2317ft 152kts
03-Jan-17 20:31 37.698779 -122.319727 200 1607ft 139kts
03-Jan-17 20:32 37.667513 -122.340482 198 947ft 128kts
03-Jan-17 20:33 37.640923 -122.358243 197 316ft 120kts
03-Jan-17 20:34 37.617834 -122.373341 207 18ft 44kts
03-Jan-17 20:35 37.616681 -122.378374 275 31ft 0kts
03-Jan-17 20:36 37.616132 -122.379892 211 34ft 11kts
03-Jan-17 20:37 37.613530 -122.381748 232 35ft 8kts
03-Jan-17 20:38 37.614336 -122.382740 26 34ft 0kts
03-Jan-17 20:39 37.614309 -122.382760 26 34ft 0kts
03-Jan-17 20:40 37.614309 -122.382760 26 34ft 0kts
03-Jan-17 20:41 37.614309 -122.382760 26 34ft 0kts
03-Jan-17 20:42 37.614309 -122.382760 26 34ft 0kts
03-Jan-17 20:43 37.614309 -122.382760 26 34ft 0kts
03-Jan-17 20:44 37.614309 -122.382760 26 34ft 0kts
03-Jan-17 20:45 37.614309 -122.382760 26 34ft 0kts
03-Jan-17 20:46 37.614308 -122.382760 26 34ft 0kts
03-Jan-17 20:47 37.614308 -122.382760 26 34ft 0kts
03-Jan-17 20:48 37.614308 -122.382760 26 34ft 0kts
03-Jan-17 20:49 37.614308 -122.382760 26 34ft 0kts

Navigation Log

Ident Type
Flight plan parsing failed, navigation log unavailable